Marydel, Delaware
Current Conditions -  °F | °C
As of 11:58 PM on Sunday 21 Dec 2014 (Local Time) from KDOV Reporting Station
Clear Clear  
Wind Chill: 21°   Ceiling: Unl
Heat Index: 26°   Visibility: 10mi
Dew Point: 24°   Wind: 5mph
Humidity: 90%   Direction: 340°NNW
Pressure: 30.31"   Gusts: NA
Location:  39.11°N, 75.74°W
Report Text: KDOV 220458Z AUTO 34004KT 10SM CLR M03/M05 A3031 RMK AO2 SLP268 T10311046 400531031
Loading
Personal Weather Stations






























Interactive Weather Map New forecast layout! Learn more

10-Day Weather Forecast

Advertisements
Track Severe Weather on mobile